TAF LFQB
METAR LFQB
LFQB 091030Z AUTO 22014KT CAVOK 03/01 Q1009=
LFQB 091000Z AUTO 21014KT CAVOK 03/02 Q1009=
LFQB 090930Z AUTO 22013KT CAVOK 02/01 Q1008=
LFQB 090900Z AUTO 21008KT CAVOK 02/01 Q1008=
LFQB 090830Z AUTO 15005KT 9999 BKN009 BKN066 OVC100 02/00 Q1008=
WC LFQB
WS LFQB
WV LFQB